sensor_id;sensor_type;location;lat;lon;timestamp;P1;durP1;ratioP1;P2;durP2;ratioP2
27505;SDS011;14939;43.596;1.320;2023-05-20T00:01:00;18.48;;;8.55;;
27505;SDS011;14939;43.596;1.320;2023-05-20T00:03:26;13.02;;;7.85;;
27505;SDS011;14939;43.596;1.320;2023-05-20T00:05:53;16.20;;;7.95;;
27505;SDS011;14939;43.596;1.320;2023-05-20T00:08:19;15.45;;;8.05;;
27505;SDS011;14939;43.596;1.320;2023-05-20T00:10:45;14.02;;;7.53;;
27505;SDS011;14939;43.596;1.320;2023-05-20T00:13:10;17.40;;;8.80;;
27505;SDS011;14939;43.596;1.320;2023-05-20T00:15:36;17.13;;;8.13;;
27505;SDS011;14939;43.596;1.320;2023-05-20T00:18:02;15.30;;;8.15;;
27505;SDS011;14939;43.596;1.320;2023-05-20T00:20:28;15.48;;;8.38;;
27505;SDS011;14939;43.596;1.320;2023-05-20T00:22:54;15.40;;;8.02;;
27505;SDS011;14939;43.596;1.320;2023-05-20T00:25:20;14.77;;;8.30;;
27505;SDS011;14939;43.596;1.320;2023-05-20T00:27:46;12.82;;;7.90;;
27505;SDS011;14939;43.596;1.320;2023-05-20T00:30:12;19.08;;;8.00;;
27505;SDS011;14939;43.596;1.320;2023-05-20T00:32:37;13.88;;;8.65;;
27505;SDS011;14939;43.596;1.320;2023-05-20T00:35:03;13.50;;;7.85;;
27505;SDS011;14939;43.596;1.320;2023-05-20T00:37:29;16.13;;;7.97;;
27505;SDS011;14939;43.596;1.320;2023-05-20T00:39:55;19.15;;;8.60;;
27505;SDS011;14939;43.596;1.320;2023-05-20T00:42:21;18.77;;;8.10;;
27505;SDS011;14939;43.596;1.320;2023-05-20T00:44:48;16.42;;;8.27;;
27505;SDS011;14939;43.596;1.320;2023-05-20T00:47:14;16.85;;;7.85;;
27505;SDS011;14939;43.596;1.320;2023-05-20T00:49:41;14.27;;;8.13;;
27505;SDS011;14939;43.596;1.320;2023-05-20T00:52:08;16.73;;;8.70;;
27505;SDS011;14939;43.596;1.320;2023-05-20T00:54:34;17.58;;;8.13;;
27505;SDS011;14939;43.596;1.320;2023-05-20T00:57:00;14.77;;;8.18;;
27505;SDS011;14939;43.596;1.320;2023-05-20T00:59:28;16.65;;;7.90;;
27505;SDS011;14939;43.596;1.320;2023-05-20T01:01:53;14.88;;;7.72;;
27505;SDS011;14939;43.596;1.320;2023-05-20T01:04:20;18.83;;;8.98;;
27505;SDS011;14939;43.596;1.320;2023-05-20T01:06:46;14.80;;;7.97;;
27505;SDS011;14939;43.596;1.320;2023-05-20T01:09:12;16.65;;;8.23;;
27505;SDS011;14939;43.596;1.320;2023-05-20T01:11:39;12.95;;;8.07;;
27505;SDS011;14939;43.596;1.320;2023-05-20T01:14:12;16.92;;;8.43;;
27505;SDS011;14939;43.596;1.320;2023-05-20T01:16:42;20.15;;;8.75;;
27505;SDS011;14939;43.596;1.320;2023-05-20T01:19:14;13.55;;;7.80;;
27505;SDS011;14939;43.596;1.320;2023-05-20T01:21:58;13.88;;;8.60;;
27505;SDS011;14939;43.596;1.320;2023-05-20T01:24:27;14.25;;;7.72;;
27505;SDS011;14939;43.596;1.320;2023-05-20T01:26:52;18.02;;;8.68;;
27505;SDS011;14939;43.596;1.320;2023-05-20T01:29:21;17.25;;;8.93;;
27505;SDS011;14939;43.596;1.320;2023-05-20T01:31:48;18.65;;;9.25;;
27505;SDS011;14939;43.596;1.320;2023-05-20T01:34:15;18.35;;;9.38;;
27505;SDS011;14939;43.596;1.320;2023-05-20T01:36:42;14.95;;;8.88;;
27505;SDS011;14939;43.596;1.320;2023-05-20T01:39:10;21.33;;;9.30;;
27505;SDS011;14939;43.596;1.320;2023-05-20T01:41:37;15.82;;;9.15;;
27505;SDS011;14939;43.596;1.320;2023-05-20T01:44:03;19.08;;;10.35;;
27505;SDS011;14939;43.596;1.320;2023-05-20T01:46:32;20.95;;;10.15;;
27505;SDS011;14939;43.596;1.320;2023-05-20T01:48:58;15.65;;;10.18;;
27505;SDS011;14939;43.596;1.320;2023-05-20T01:51:24;17.27;;;9.75;;
27505;SDS011;14939;43.596;1.320;2023-05-20T01:53:50;17.77;;;10.13;;
27505;SDS011;14939;43.596;1.320;2023-05-20T01:56:16;18.10;;;10.00;;
27505;SDS011;14939;43.596;1.320;2023-05-20T01:58:41;20.05;;;9.52;;
27505;SDS011;14939;43.596;1.320;2023-05-20T02:01:07;17.48;;;9.95;;
27505;SDS011;14939;43.596;1.320;2023-05-20T02:03:33;21.33;;;10.13;;
27505;SDS011;14939;43.596;1.320;2023-05-20T02:05:58;20.58;;;9.95;;
27505;SDS011;14939;43.596;1.320;2023-05-20T02:08:24;19.05;;;10.07;;
27505;SDS011;14939;43.596;1.320;2023-05-20T02:10:50;20.45;;;10.57;;
27505;SDS011;14939;43.596;1.320;2023-05-20T02:13:15;18.70;;;10.77;;
27505;SDS011;14939;43.596;1.320;2023-05-20T02:15:41;16.67;;;10.13;;
27505;SDS011;14939;43.596;1.320;2023-05-20T02:18:07;17.90;;;10.02;;
27505;SDS011;14939;43.596;1.320;2023-05-20T02:20:36;15.45;;;9.73;;
27505;SDS011;14939;43.596;1.320;2023-05-20T02:23:02;19.38;;;10.63;;
27505;SDS011;14939;43.596;1.320;2023-05-20T02:25:30;17.88;;;10.13;;
27505;SDS011;14939;43.596;1.320;2023-05-20T02:27:56;19.13;;;9.85;;
27505;SDS011;14939;43.596;1.320;2023-05-20T02:30:22;15.02;;;10.40;;
27505;SDS011;14939;43.596;1.320;2023-05-20T02:32:47;15.65;;;10.25;;
27505;SDS011;14939;43.596;1.320;2023-05-20T02:35:13;21.77;;;10.40;;
27505;SDS011;14939;43.596;1.320;2023-05-20T02:37:39;19.17;;;10.80;;
27505;SDS011;14939;43.596;1.320;2023-05-20T02:40:05;21.50;;;10.95;;
27505;SDS011;14939;43.596;1.320;2023-05-20T02:42:33;19.52;;;11.30;;
27505;SDS011;14939;43.596;1.320;2023-05-20T02:44:58;20.88;;;10.90;;
27505;SDS011;14939;43.596;1.320;2023-05-20T02:47:24;18.38;;;10.63;;
27505;SDS011;14939;43.596;1.320;2023-05-20T02:49:50;19.98;;;11.00;;
27505;SDS011;14939;43.596;1.320;2023-05-20T02:52:16;20.30;;;11.80;;
27505;SDS011;14939;43.596;1.320;2023-05-20T02:54:42;19.25;;;10.45;;
27505;SDS011;14939;43.596;1.320;2023-05-20T02:57:08;20.65;;;11.05;;
27505;SDS011;14939;43.596;1.320;2023-05-20T02:59:33;18.60;;;10.68;;
27505;SDS011;14939;43.596;1.320;2023-05-20T03:01:59;18.83;;;10.02;;
27505;SDS011;14939;43.596;1.320;2023-05-20T03:04:25;17.42;;;10.65;;
27505;SDS011;14939;43.596;1.320;2023-05-20T03:06:51;24.80;;;11.20;;
27505;SDS011;14939;43.596;1.320;2023-05-20T03:09:17;26.48;;;11.63;;
27505;SDS011;14939;43.596;1.320;2023-05-20T03:11:43;22.60;;;11.85;;
27505;SDS011;14939;43.596;1.320;2023-05-20T03:14:11;20.92;;;11.60;;
27505;SDS011;14939;43.596;1.320;2023-05-20T03:16:38;24.88;;;12.38;;
27505;SDS011;14939;43.596;1.320;2023-05-20T03:19:04;22.90;;;12.23;;
27505;SDS011;14939;43.596;1.320;2023-05-20T03:21:30;20.83;;;12.65;;
27505;SDS011;14939;43.596;1.320;2023-05-20T03:23:56;24.73;;;12.88;;
27505;SDS011;14939;43.596;1.320;2023-05-20T03:26:22;25.20;;;11.85;;
27505;SDS011;14939;43.596;1.320;2023-05-20T03:28:49;24.10;;;12.05;;
27505;SDS011;14939;43.596;1.320;2023-05-20T03:31:15;23.67;;;11.70;;
27505;SDS011;14939;43.596;1.320;2023-05-20T03:33:41;23.20;;;13.02;;
27505;SDS011;14939;43.596;1.320;2023-05-20T03:36:07;21.65;;;12.95;;
27505;SDS011;14939;43.596;1.320;2023-05-20T03:38:32;28.60;;;12.80;;
27505;SDS011;14939;43.596;1.320;2023-05-20T03:40:58;24.50;;;12.88;;
27505;SDS011;14939;43.596;1.320;2023-05-20T03:43:24;23.63;;;13.63;;
27505;SDS011;14939;43.596;1.320;2023-05-20T03:45:51;19.83;;;12.45;;
27505;SDS011;14939;43.596;1.320;2023-05-20T03:48:16;23.25;;;12.25;;
27505;SDS011;14939;43.596;1.320;2023-05-20T03:50:42;24.45;;;13.52;;
27505;SDS011;14939;43.596;1.320;2023-05-20T03:53:07;24.13;;;13.77;;
27505;SDS011;14939;43.596;1.320;2023-05-20T03:55:33;25.25;;;13.98;;
27505;SDS011;14939;43.596;1.320;2023-05-20T03:57:59;25.85;;;13.43;;
27505;SDS011;14939;43.596;1.320;2023-05-20T04:00:25;25.40;;;13.00;;
27505;SDS011;14939;43.596;1.320;2023-05-20T04:02:51;26.60;;;13.38;;
27505;SDS011;14939;43.596;1.320;2023-05-20T04:05:17;17.38;;;12.05;;
27505;SDS011;14939;43.596;1.320;2023-05-20T04:07:43;21.42;;;13.10;;
27505;SDS011;14939;43.596;1.320;2023-05-20T04:10:09;26.08;;;13.20;;
27505;SDS011;14939;43.596;1.320;2023-05-20T04:12:35;21.98;;;12.00;;
27505;SDS011;14939;43.596;1.320;2023-05-20T04:15:02;23.90;;;12.57;;
27505;SDS011;14939;43.596;1.320;2023-05-20T04:17:29;25.50;;;12.05;;
27505;SDS011;14939;43.596;1.320;2023-05-20T04:19:55;25.45;;;13.15;;
27505;SDS011;14939;43.596;1.320;2023-05-20T04:22:22;22.55;;;13.75;;
27505;SDS011;14939;43.596;1.320;2023-05-20T04:24:48;27.00;;;13.95;;
27505;SDS011;14939;43.596;1.320;2023-05-20T04:27:14;21.77;;;12.85;;
27505;SDS011;14939;43.596;1.320;2023-05-20T04:29:40;27.65;;;14.07;;
27505;SDS011;14939;43.596;1.320;2023-05-20T04:32:11;27.17;;;13.43;;
27505;SDS011;14939;43.596;1.320;2023-05-20T04:34:38;27.63;;;13.15;;
27505;SDS011;14939;43.596;1.320;2023-05-20T04:37:03;28.45;;;14.00;;
27505;SDS011;14939;43.596;1.320;2023-05-20T04:39:31;26.42;;;14.23;;
27505;SDS011;14939;43.596;1.320;2023-05-20T04:41:57;30.08;;;14.63;;
27505;SDS011;14939;43.596;1.320;2023-05-20T04:44:23;26.67;;;15.30;;
27505;SDS011;14939;43.596;1.320;2023-05-20T04:46:50;30.73;;;16.15;;
27505;SDS011;14939;43.596;1.320;2023-05-20T04:49:16;30.27;;;15.88;;
27505;SDS011;14939;43.596;1.320;2023-05-20T04:51:42;26.70;;;15.57;;
27505;SDS011;14939;43.596;1.320;2023-05-20T04:54:08;31.70;;;16.02;;
27505;SDS011;14939;43.596;1.320;2023-05-20T04:56:33;34.15;;;17.35;;
27505;SDS011;14939;43.596;1.320;2023-05-20T04:59:00;30.30;;;16.70;;
27505;SDS011;14939;43.596;1.320;2023-05-20T05:01:26;23.92;;;15.25;;
27505;SDS011;14939;43.596;1.320;2023-05-20T05:03:52;31.13;;;15.50;;
27505;SDS011;14939;43.596;1.320;2023-05-20T05:06:17;29.85;;;14.75;;
27505;SDS011;14939;43.596;1.320;2023-05-20T05:08:43;25.08;;;14.35;;
27505;SDS011;14939;43.596;1.320;2023-05-20T05:11:09;27.55;;;15.90;;
27505;SDS011;14939;43.596;1.320;2023-05-20T05:13:35;30.17;;;15.23;;
27505;SDS011;14939;43.596;1.320;2023-05-20T05:16:01;31.10;;;15.05;;
27505;SDS011;14939;43.596;1.320;2023-05-20T05:18:27;29.35;;;14.82;;
27505;SDS011;14939;43.596;1.320;2023-05-20T05:20:59;25.20;;;14.38;;
27505;SDS011;14939;43.596;1.320;2023-05-20T05:23:26;29.13;;;14.35;;
27505;SDS011;14939;43.596;1.320;2023-05-20T05:25:52;26.55;;;13.43;;
27505;SDS011;14939;43.596;1.320;2023-05-20T05:28:18;21.33;;;13.13;;
27505;SDS011;14939;43.596;1.320;2023-05-20T05:30:43;23.55;;;14.43;;
27505;SDS011;14939;43.596;1.320;2023-05-20T05:33:09;28.05;;;12.70;;
27505;SDS011;14939;43.596;1.320;2023-05-20T05:35:35;24.27;;;12.77;;
27505;SDS011;14939;43.596;1.320;2023-05-20T05:38:00;22.02;;;13.35;;
27505;SDS011;14939;43.596;1.320;2023-05-20T05:40:26;26.55;;;12.77;;
27505;SDS011;14939;43.596;1.320;2023-05-20T05:42:52;21.92;;;12.70;;
27505;SDS011;14939;43.596;1.320;2023-05-20T05:45:17;22.75;;;12.88;;
27505;SDS011;14939;43.596;1.320;2023-05-20T05:47:43;22.92;;;12.27;;
27505;SDS011;14939;43.596;1.320;2023-05-20T05:50:09;26.88;;;12.13;;
27505;SDS011;14939;43.596;1.320;2023-05-20T05:52:35;26.75;;;12.60;;
27505;SDS011;14939;43.596;1.320;2023-05-20T05:55:01;24.38;;;13.18;;
27505;SDS011;14939;43.596;1.320;2023-05-20T05:57:27;20.60;;;11.93;;
27505;SDS011;14939;43.596;1.320;2023-05-20T05:59:52;20.83;;;11.80;;
27505;SDS011;14939;43.596;1.320;2023-05-20T06:02:18;21.98;;;12.32;;
27505;SDS011;14939;43.596;1.320;2023-05-20T06:04:44;21.60;;;11.80;;
27505;SDS011;14939;43.596;1.320;2023-05-20T06:07:09;20.65;;;11.85;;
27505;SDS011;14939;43.596;1.320;2023-05-20T06:09:35;22.05;;;12.75;;
27505;SDS011;14939;43.596;1.320;2023-05-20T06:12:02;21.83;;;11.43;;
27505;SDS011;14939;43.596;1.320;2023-05-20T06:14:28;24.25;;;12.23;;
27505;SDS011;14939;43.596;1.320;2023-05-20T06:16:54;24.20;;;12.15;;
27505;SDS011;14939;43.596;1.320;2023-05-20T06:19:20;22.73;;;12.57;;
27505;SDS011;14939;43.596;1.320;2023-05-20T06:21:45;24.90;;;11.98;;
27505;SDS011;14939;43.596;1.320;2023-05-20T06:24:11;22.88;;;12.80;;
27505;SDS011;14939;43.596;1.320;2023-05-20T06:26:37;22.75;;;11.75;;
27505;SDS011;14939;43.596;1.320;2023-05-20T06:29:02;19.67;;;11.77;;
27505;SDS011;14939;43.596;1.320;2023-05-20T06:31:28;18.40;;;11.23;;
27505;SDS011;14939;43.596;1.320;2023-05-20T06:33:54;21.38;;;11.00;;
27505;SDS011;14939;43.596;1.320;2023-05-20T06:36:20;22.23;;;11.13;;
27505;SDS011;14939;43.596;1.320;2023-05-20T06:38:45;19.75;;;11.35;;
27505;SDS011;14939;43.596;1.320;2023-05-20T06:41:11;19.65;;;11.52;;
27505;SDS011;14939;43.596;1.320;2023-05-20T06:43:37;18.38;;;10.32;;
27505;SDS011;14939;43.596;1.320;2023-05-20T06:46:04;18.55;;;10.85;;
27505;SDS011;14939;43.596;1.320;2023-05-20T06:48:30;23.33;;;11.93;;
27505;SDS011;14939;43.596;1.320;2023-05-20T06:50:56;22.25;;;10.57;;
27505;SDS011;14939;43.596;1.320;2023-05-20T06:53:22;21.02;;;10.20;;
27505;SDS011;14939;43.596;1.320;2023-05-20T06:55:47;20.52;;;10.45;;
27505;SDS011;14939;43.596;1.320;2023-05-20T06:58:13;20.02;;;11.05;;
27505;SDS011;14939;43.596;1.320;2023-05-20T07:00:39;22.05;;;10.15;;
27505;SDS011;14939;43.596;1.320;2023-05-20T07:03:05;18.60;;;9.82;;
27505;SDS011;14939;43.596;1.320;2023-05-20T07:05:31;15.48;;;10.30;;
27505;SDS011;14939;43.596;1.320;2023-05-20T07:07:56;20.27;;;9.75;;
27505;SDS011;14939;43.596;1.320;2023-05-20T07:10:22;20.92;;;10.13;;
27505;SDS011;14939;43.596;1.320;2023-05-20T07:12:48;21.60;;;10.50;;
27505;SDS011;14939;43.596;1.320;2023-05-20T07:15:13;19.98;;;9.60;;
27505;SDS011;14939;43.596;1.320;2023-05-20T07:17:39;22.63;;;9.93;;
27505;SDS011;14939;43.596;1.320;2023-05-20T07:20:05;18.33;;;9.82;;
27505;SDS011;14939;43.596;1.320;2023-05-20T07:22:32;19.52;;;10.35;;
27505;SDS011;14939;43.596;1.320;2023-05-20T07:24:57;19.15;;;10.10;;
27505;SDS011;14939;43.596;1.320;2023-05-20T07:27:25;17.75;;;9.88;;
27505;SDS011;14939;43.596;1.320;2023-05-20T07:29:50;16.25;;;9.48;;
27505;SDS011;14939;43.596;1.320;2023-05-20T07:32:16;20.80;;;9.05;;
27505;SDS011;14939;43.596;1.320;2023-05-20T07:34:42;16.90;;;9.02;;
27505;SDS011;14939;43.596;1.320;2023-05-20T07:37:07;19.27;;;9.75;;
27505;SDS011;14939;43.596;1.320;2023-05-20T07:39:34;16.40;;;8.88;;
27505;SDS011;14939;43.596;1.320;2023-05-20T07:42:00;17.63;;;8.60;;
27505;SDS011;14939;43.596;1.320;2023-05-20T07:44:25;16.95;;;9.10;;
27505;SDS011;14939;43.596;1.320;2023-05-20T07:46:51;30.23;;;9.63;;
27505;SDS011;14939;43.596;1.320;2023-05-20T07:49:16;14.52;;;8.52;;
27505;SDS011;14939;43.596;1.320;2023-05-20T07:51:42;14.77;;;8.63;;
27505;SDS011;14939;43.596;1.320;2023-05-20T07:54:08;17.27;;;9.07;;
27505;SDS011;14939;43.596;1.320;2023-05-20T07:56:33;15.20;;;8.52;;
27505;SDS011;14939;43.596;1.320;2023-05-20T07:59:00;14.38;;;8.48;;
27505;SDS011;14939;43.596;1.320;2023-05-20T08:01:27;16.23;;;7.35;;
27505;SDS011;14939;43.596;1.320;2023-05-20T08:03:53;14.13;;;7.10;;
27505;SDS011;14939;43.596;1.320;2023-05-20T08:06:20;15.85;;;7.53;;
27505;SDS011;14939;43.596;1.320;2023-05-20T08:08:46;13.85;;;7.88;;
27505;SDS011;14939;43.596;1.320;2023-05-20T08:11:12;17.20;;;8.35;;
27505;SDS011;14939;43.596;1.320;2023-05-20T08:13:37;14.35;;;7.70;;
27505;SDS011;14939;43.596;1.320;2023-05-20T08:16:04;17.85;;;8.07;;
27505;SDS011;14939;43.596;1.320;2023-05-20T08:18:30;15.30;;;7.40;;
27505;SDS011;14939;43.596;1.320;2023-05-20T08:20:57;14.02;;;7.28;;
27505;SDS011;14939;43.596;1.320;2023-05-20T08:23:24;15.35;;;7.47;;
27505;SDS011;14939;43.596;1.320;2023-05-20T08:25:50;13.40;;;7.07;;
27505;SDS011;14939;43.596;1.320;2023-05-20T08:28:16;12.73;;;7.18;;
27505;SDS011;14939;43.596;1.320;2023-05-20T08:30:41;13.73;;;7.80;;
27505;SDS011;14939;43.596;1.320;2023-05-20T08:33:07;14.68;;;7.28;;
27505;SDS011;14939;43.596;1.320;2023-05-20T08:35:33;11.75;;;6.38;;
27505;SDS011;14939;43.596;1.320;2023-05-20T08:37:59;11.18;;;5.90;;
27505;SDS011;14939;43.596;1.320;2023-05-20T08:40:26;13.18;;;6.00;;
27505;SDS011;14939;43.596;1.320;2023-05-20T08:42:51;12.07;;;6.63;;
27505;SDS011;14939;43.596;1.320;2023-05-20T08:45:18;12.40;;;6.50;;
27505;SDS011;14939;43.596;1.320;2023-05-20T08:47:51;13.15;;;6.13;;
27505;SDS011;14939;43.596;1.320;2023-05-20T08:50:17;13.50;;;6.45;;
27505;SDS011;14939;43.596;1.320;2023-05-20T08:52:44;10.63;;;5.47;;
27505;SDS011;14939;43.596;1.320;2023-05-20T08:55:34;10.73;;;5.43;;
27505;SDS011;14939;43.596;1.320;2023-05-20T08:58:06;11.60;;;5.82;;
27505;SDS011;14939;43.596;1.320;2023-05-20T09:00:31;14.70;;;6.55;;
27505;SDS011;14939;43.596;1.320;2023-05-20T09:02:57;11.13;;;6.30;;
27505;SDS011;14939;43.596;1.320;2023-05-20T09:05:25;11.00;;;6.10;;
27505;SDS011;14939;43.596;1.320;2023-05-20T09:07:51;11.88;;;6.00;;
27505;SDS011;14939;43.596;1.320;2023-05-20T09:10:17;14.57;;;6.32;;
27505;SDS011;14939;43.596;1.320;2023-05-20T09:12:44;12.88;;;6.15;;
27505;SDS011;14939;43.596;1.320;2023-05-20T09:15:10;11.93;;;6.30;;
27505;SDS011;14939;43.596;1.320;2023-05-20T09:17:36;10.10;;;5.35;;
27505;SDS011;14939;43.596;1.320;2023-05-20T09:20:06;14.27;;;6.32;;
27505;SDS011;14939;43.596;1.320;2023-05-20T09:22:32;10.68;;;5.25;;
27505;SDS011;14939;43.596;1.320;2023-05-20T09:24:58;12.20;;;5.80;;
27505;SDS011;14939;43.596;1.320;2023-05-20T09:27:24;9.05;;;5.20;;
27505;SDS011;14939;43.596;1.320;2023-05-20T09:29:50;12.48;;;5.85;;
27505;SDS011;14939;43.596;1.320;2023-05-20T09:32:16;12.48;;;5.78;;
27505;SDS011;14939;43.596;1.320;2023-05-20T09:34:45;11.30;;;5.40;;
27505;SDS011;14939;43.596;1.320;2023-05-20T09:37:11;8.23;;;5.50;;
27505;SDS011;14939;43.596;1.320;2023-05-20T09:39:54;13.93;;;4.88;;
27505;SDS011;14939;43.596;1.320;2023-05-20T09:42:22;9.82;;;4.55;;
27505;SDS011;14939;43.596;1.320;2023-05-20T09:44:53;10.77;;;5.00;;
27505;SDS011;14939;43.596;1.320;2023-05-20T09:47:19;10.15;;;5.28;;
27505;SDS011;14939;43.596;1.320;2023-05-20T09:49:45;8.38;;;4.55;;
27505;SDS011;14939;43.596;1.320;2023-05-20T09:52:16;9.23;;;4.50;;
27505;SDS011;14939;43.596;1.320;2023-05-20T09:54:43;12.52;;;5.28;;
27505;SDS011;14939;43.596;1.320;2023-05-20T09:57:09;8.32;;;4.63;;
27505;SDS011;14939;43.596;1.320;2023-05-20T09:59:36;11.80;;;5.03;;
27505;SDS011;14939;43.596;1.320;2023-05-20T10:02:03;11.45;;;4.90;;
27505;SDS011;14939;43.596;1.320;2023-05-20T10:04:30;8.82;;;4.20;;
27505;SDS011;14939;43.596;1.320;2023-05-20T10:09:42;10.82;;;4.78;;
27505;SDS011;14939;43.596;1.320;2023-05-20T10:18:03;10.35;;;4.50;;
27505;SDS011;14939;43.596;1.320;2023-05-20T10:20:26;9.40;;;3.88;;
27505;SDS011;14939;43.596;1.320;2023-05-20T10:22:56;9.52;;;4.35;;
27505;SDS011;14939;43.596;1.320;2023-05-20T10:25:25;7.43;;;3.50;;
27505;SDS011;14939;43.596;1.320;2023-05-20T10:28:02;8.70;;;4.10;;
27505;SDS011;14939;43.596;1.320;2023-05-20T10:30:29;8.30;;;4.10;;
27505;SDS011;14939;43.596;1.320;2023-05-20T10:32:57;7.15;;;3.67;;
27505;SDS011;14939;43.596;1.320;2023-05-20T10:35:28;6.63;;;4.18;;
27505;SDS011;14939;43.596;1.320;2023-05-20T10:38:09;11.93;;;4.30;;
27505;SDS011;14939;43.596;1.320;2023-05-20T10:40:36;9.05;;;4.07;;
27505;SDS011;14939;43.596;1.320;2023-05-20T10:43:11;7.03;;;3.70;;
27505;SDS011;14939;43.596;1.320;2023-05-20T10:45:47;8.98;;;3.75;;
27505;SDS011;14939;43.596;1.320;2023-05-20T10:48:19;5.85;;;3.15;;
27505;SDS011;14939;43.596;1.320;2023-05-20T10:50:48;5.90;;;3.50;;
27505;SDS011;14939;43.596;1.320;2023-05-20T10:53:14;9.50;;;3.42;;
27505;SDS011;14939;43.596;1.320;2023-05-20T10:55:40;7.85;;;3.75;;
27505;SDS011;14939;43.596;1.320;2023-05-20T10:58:13;10.82;;;3.58;;
27505;SDS011;14939;43.596;1.320;2023-05-20T11:00:39;6.82;;;3.47;;
27505;SDS011;14939;43.596;1.320;2023-05-20T11:03:05;6.88;;;3.50;;
27505;SDS011;14939;43.596;1.320;2023-05-20T11:05:31;6.30;;;3.55;;
27505;SDS011;14939;43.596;1.320;2023-05-20T11:08:01;8.25;;;3.30;;
27505;SDS011;14939;43.596;1.320;2023-05-20T11:10:27;8.85;;;3.45;;
27505;SDS011;14939;43.596;1.320;2023-05-20T11:12:54;8.48;;;3.08;;
27505;SDS011;14939;43.596;1.320;2023-05-20T11:15:22;6.88;;;3.00;;
27505;SDS011;14939;43.596;1.320;2023-05-20T11:20:19;6.32;;;2.88;;
27505;SDS011;14939;43.596;1.320;2023-05-20T11:22:46;6.57;;;3.00;;
27505;SDS011;14939;43.596;1.320;2023-05-20T11:25:11;5.18;;;3.00;;
27505;SDS011;14939;43.596;1.320;2023-05-20T11:27:40;7.45;;;2.97;;
27505;SDS011;14939;43.596;1.320;2023-05-20T11:30:07;6.68;;;2.97;;
27505;SDS011;14939;43.596;1.320;2023-05-20T11:32:33;4.45;;;2.50;;
27505;SDS011;14939;43.596;1.320;2023-05-20T11:34:58;7.07;;;2.70;;
27505;SDS011;14939;43.596;1.320;2023-05-20T11:37:24;5.40;;;2.88;;
27505;SDS011;14939;43.596;1.320;2023-05-20T11:40:04;4.35;;;2.67;;
27505;SDS011;14939;43.596;1.320;2023-05-20T11:42:31;11.02;;;3.22;;
27505;SDS011;14939;43.596;1.320;2023-05-20T11:45:00;7.65;;;2.83;;
27505;SDS011;14939;43.596;1.320;2023-05-20T11:47:26;7.18;;;2.97;;
27505;SDS011;14939;43.596;1.320;2023-05-20T11:49:52;8.60;;;2.85;;
27505;SDS011;14939;43.596;1.320;2023-05-20T11:52:20;7.22;;;2.70;;
27505;SDS011;14939;43.596;1.320;2023-05-20T11:54:50;5.65;;;2.30;;
27505;SDS011;14939;43.596;1.320;2023-05-20T11:57:17;4.80;;;2.40;;
27505;SDS011;14939;43.596;1.320;2023-05-20T11:59:45;4.28;;;2.50;;
27505;SDS011;14939;43.596;1.320;2023-05-20T12:02:11;5.70;;;2.45;;
27505;SDS011;14939;43.596;1.320;2023-05-20T12:04:37;6.13;;;2.40;;
27505;SDS011;14939;43.596;1.320;2023-05-20T12:07:03;4.68;;;2.38;;
27505;SDS011;14939;43.596;1.320;2023-05-20T12:09:33;6.45;;;2.60;;
27505;SDS011;14939;43.596;1.320;2023-05-20T12:11:58;5.35;;;2.60;;
27505;SDS011;14939;43.596;1.320;2023-05-20T12:14:24;5.13;;;2.30;;
27505;SDS011;14939;43.596;1.320;2023-05-20T12:16:50;6.13;;;2.65;;
27505;SDS011;14939;43.596;1.320;2023-05-20T12:19:17;5.68;;;2.78;;
27505;SDS011;14939;43.596;1.320;2023-05-20T12:21:43;5.68;;;2.80;;
27505;SDS011;14939;43.596;1.320;2023-05-20T12:24:11;6.22;;;2.47;;
27505;SDS011;14939;43.596;1.320;2023-05-20T12:26:37;6.97;;;3.00;;
27505;SDS011;14939;43.596;1.320;2023-05-20T12:29:03;6.70;;;2.38;;
27505;SDS011;14939;43.596;1.320;2023-05-20T12:31:28;8.43;;;3.00;;
27505;SDS011;14939;43.596;1.320;2023-05-20T12:33:54;7.90;;;2.67;;
27505;SDS011;14939;43.596;1.320;2023-05-20T12:36:20;5.43;;;3.00;;
27505;SDS011;14939;43.596;1.320;2023-05-20T12:38:46;4.70;;;2.72;;
27505;SDS011;14939;43.596;1.320;2023-05-20T12:41:11;6.03;;;2.70;;
27505;SDS011;14939;43.596;1.320;2023-05-20T12:43:37;4.30;;;2.30;;
27505;SDS011;14939;43.596;1.320;2023-05-20T12:46:03;6.68;;;2.80;;
27505;SDS011;14939;43.596;1.320;2023-05-20T12:48:29;5.50;;;2.30;;
27505;SDS011;14939;43.596;1.320;2023-05-20T12:50:55;4.65;;;2.40;;
27505;SDS011;14939;43.596;1.320;2023-05-20T12:53:21;4.35;;;2.20;;
27505;SDS011;14939;43.596;1.320;2023-05-20T12:55:46;4.07;;;2.33;;
27505;SDS011;14939;43.596;1.320;2023-05-20T12:58:12;7.43;;;2.35;;
27505;SDS011;14939;43.596;1.320;2023-05-20T13:00:37;5.50;;;2.60;;
27505;SDS011;14939;43.596;1.320;2023-05-20T13:03:03;7.40;;;2.67;;
27505;SDS011;14939;43.596;1.320;2023-05-20T13:05:29;6.00;;;2.65;;
27505;SDS011;14939;43.596;1.320;2023-05-20T13:07:54;5.18;;;2.22;;
27505;SDS011;14939;43.596;1.320;2023-05-20T13:10:20;4.38;;;2.30;;
27505;SDS011;14939;43.596;1.320;2023-05-20T13:12:46;5.45;;;2.28;;
27505;SDS011;14939;43.596;1.320;2023-05-20T13:15:12;5.13;;;2.50;;
27505;SDS011;14939;43.596;1.320;2023-05-20T13:17:38;5.22;;;2.28;;
27505;SDS011;14939;43.596;1.320;2023-05-20T13:20:05;3.70;;;2.03;;
27505;SDS011;14939;43.596;1.320;2023-05-20T13:22:31;4.55;;;2.28;;
27505;SDS011;14939;43.596;1.320;2023-05-20T13:24:57;3.08;;;1.98;;
27505;SDS011;14939;43.596;1.320;2023-05-20T13:27:23;5.10;;;2.10;;
27505;SDS011;14939;43.596;1.320;2023-05-20T13:29:48;3.78;;;2.03;;
27505;SDS011;14939;43.596;1.320;2023-05-20T13:32:14;3.53;;;1.90;;
27505;SDS011;14939;43.596;1.320;2023-05-20T13:34:40;3.88;;;2.05;;
27505;SDS011;14939;43.596;1.320;2023-05-20T13:37:05;4.47;;;2.30;;
27505;SDS011;14939;43.596;1.320;2023-05-20T13:39:31;2.97;;;1.95;;
27505;SDS011;14939;43.596;1.320;2023-05-20T13:41:57;4.70;;;2.15;;
27505;SDS011;14939;43.596;1.320;2023-05-20T13:44:23;5.70;;;2.30;;
27505;SDS011;14939;43.596;1.320;2023-05-20T13:46:49;7.30;;;2.33;;
27505;SDS011;14939;43.596;1.320;2023-05-20T13:49:14;4.05;;;2.20;;
27505;SDS011;14939;43.596;1.320;2023-05-20T13:51:40;6.25;;;2.20;;
27505;SDS011;14939;43.596;1.320;2023-05-20T13:54:06;4.55;;;2.03;;
27505;SDS011;14939;43.596;1.320;2023-05-20T13:56:31;5.72;;;2.67;;
27505;SDS011;14939;43.596;1.320;2023-05-20T13:58:57;5.68;;;2.10;;
27505;SDS011;14939;43.596;1.320;2023-05-20T14:01:23;4.28;;;2.05;;
27505;SDS011;14939;43.596;1.320;2023-05-20T14:03:49;3.13;;;2.03;;
27505;SDS011;14939;43.596;1.320;2023-05-20T14:06:14;3.20;;;1.83;;
27505;SDS011;14939;43.596;1.320;2023-05-20T14:08:43;3.75;;;2.15;;
27505;SDS011;14939;43.596;1.320;2023-05-20T14:11:10;6.22;;;2.58;;
27505;SDS011;14939;43.596;1.320;2023-05-20T14:13:35;8.35;;;3.50;;
27505;SDS011;14939;43.596;1.320;2023-05-20T14:16:01;5.95;;;2.13;;
27505;SDS011;14939;43.596;1.320;2023-05-20T14:18:27;5.05;;;2.20;;
27505;SDS011;14939;43.596;1.320;2023-05-20T14:20:53;4.18;;;2.00;;
27505;SDS011;14939;43.596;1.320;2023-05-20T14:23:18;6.72;;;3.58;;
27505;SDS011;14939;43.596;1.320;2023-05-20T14:25:45;3.25;;;2.20;;
27505;SDS011;14939;43.596;1.320;2023-05-20T14:28:10;4.55;;;2.40;;
27505;SDS011;14939;43.596;1.320;2023-05-20T14:30:36;3.92;;;2.00;;
27505;SDS011;14939;43.596;1.320;2023-05-20T14:33:02;2.95;;;1.90;;
27505;SDS011;14939;43.596;1.320;2023-05-20T14:35:27;5.00;;;1.90;;
27505;SDS011;14939;43.596;1.320;2023-05-20T14:37:53;3.85;;;2.13;;
27505;SDS011;14939;43.596;1.320;2023-05-20T14:40:19;3.40;;;2.25;;